sensor_id;sensor_type;location;lat;lon;timestamp;P1;durP1;ratioP1;P2;durP2;ratioP2
20456;SDS011;10387;51.102;6.848;2022-07-06T00:01:28;3.97;;;3.53;;
20456;SDS011;10387;51.102;6.848;2022-07-06T00:03:55;3.37;;;3.07;;
20456;SDS011;10387;51.102;6.848;2022-07-06T00:06:21;3.73;;;3.20;;
20456;SDS011;10387;51.102;6.848;2022-07-06T00:08:47;6.37;;;3.80;;
20456;SDS011;10387;51.102;6.848;2022-07-06T00:11:13;4.03;;;3.60;;
20456;SDS011;10387;51.102;6.848;2022-07-06T00:13:39;4.40;;;3.30;;
20456;SDS011;10387;51.102;6.848;2022-07-06T00:16:05;5.23;;;3.50;;
20456;SDS011;10387;51.102;6.848;2022-07-06T00:18:31;5.10;;;3.63;;
20456;SDS011;10387;51.102;6.848;2022-07-06T00:20:57;5.97;;;3.70;;
20456;SDS011;10387;51.102;6.848;2022-07-06T00:23:23;6.80;;;3.93;;
20456;SDS011;10387;51.102;6.848;2022-07-06T00:25:50;4.77;;;3.93;;
20456;SDS011;10387;51.102;6.848;2022-07-06T00:28:16;3.70;;;3.40;;
20456;SDS011;10387;51.102;6.848;2022-07-06T00:30:42;4.10;;;3.57;;
20456;SDS011;10387;51.102;6.848;2022-07-06T00:33:09;4.97;;;3.67;;
20456;SDS011;10387;51.102;6.848;2022-07-06T00:35:35;6.13;;;4.10;;
20456;SDS011;10387;51.102;6.848;2022-07-06T00:38:01;4.80;;;4.13;;
20456;SDS011;10387;51.102;6.848;2022-07-06T00:40:28;4.40;;;4.00;;
20456;SDS011;10387;51.102;6.848;2022-07-06T00:42:56;4.80;;;3.80;;
20456;SDS011;10387;51.102;6.848;2022-07-06T00:45:22;5.67;;;4.03;;
20456;SDS011;10387;51.102;6.848;2022-07-06T00:47:48;6.80;;;4.60;;
20456;SDS011;10387;51.102;6.848;2022-07-06T00:50:15;5.60;;;4.53;;
20456;SDS011;10387;51.102;6.848;2022-07-06T00:52:59;4.77;;;4.07;;
20456;SDS011;10387;51.102;6.848;2022-07-06T00:55:29;5.27;;;3.80;;
20456;SDS011;10387;51.102;6.848;2022-07-06T00:57:56;5.10;;;3.93;;
20456;SDS011;10387;51.102;6.848;2022-07-06T01:00:23;4.57;;;4.10;;
20456;SDS011;10387;51.102;6.848;2022-07-06T01:02:50;5.47;;;4.40;;
20456;SDS011;10387;51.102;6.848;2022-07-06T01:05:16;4.33;;;3.93;;
20456;SDS011;10387;51.102;6.848;2022-07-06T01:07:43;5.27;;;4.40;;
20456;SDS011;10387;51.102;6.848;2022-07-06T01:10:12;5.00;;;4.50;;
20456;SDS011;10387;51.102;6.848;2022-07-06T01:12:39;5.10;;;4.13;;
20456;SDS011;10387;51.102;6.848;2022-07-06T01:15:07;6.60;;;4.50;;
20456;SDS011;10387;51.102;6.848;2022-07-06T01:17:33;5.70;;;4.40;;
20456;SDS011;10387;51.102;6.848;2022-07-06T01:20:15;7.07;;;4.47;;
20456;SDS011;10387;51.102;6.848;2022-07-06T01:22:42;5.10;;;4.20;;
20456;SDS011;10387;51.102;6.848;2022-07-06T01:25:09;4.63;;;4.13;;
20456;SDS011;10387;51.102;6.848;2022-07-06T01:27:35;4.70;;;4.30;;
20456;SDS011;10387;51.102;6.848;2022-07-06T01:30:11;7.23;;;4.80;;
20456;SDS011;10387;51.102;6.848;2022-07-06T01:32:38;5.23;;;4.60;;
20456;SDS011;10387;51.102;6.848;2022-07-06T01:35:05;4.50;;;3.90;;
20456;SDS011;10387;51.102;6.848;2022-07-06T01:37:31;6.40;;;4.37;;
20456;SDS011;10387;51.102;6.848;2022-07-06T01:39:58;5.03;;;4.43;;
20456;SDS011;10387;51.102;6.848;2022-07-06T01:42:25;5.57;;;4.37;;
20456;SDS011;10387;51.102;6.848;2022-07-06T01:44:51;6.30;;;4.57;;
20456;SDS011;10387;51.102;6.848;2022-07-06T01:47:17;5.40;;;4.87;;
20456;SDS011;10387;51.102;6.848;2022-07-06T01:49:43;5.73;;;4.37;;
20456;SDS011;10387;51.102;6.848;2022-07-06T01:52:09;4.83;;;4.30;;
20456;SDS011;10387;51.102;6.848;2022-07-06T01:54:35;5.67;;;4.40;;
20456;SDS011;10387;51.102;6.848;2022-07-06T01:57:03;5.57;;;4.70;;
20456;SDS011;10387;51.102;6.848;2022-07-06T01:59:29;5.17;;;4.67;;
20456;SDS011;10387;51.102;6.848;2022-07-06T02:01:55;4.67;;;4.27;;
20456;SDS011;10387;51.102;6.848;2022-07-06T02:04:22;5.50;;;4.33;;
20456;SDS011;10387;51.102;6.848;2022-07-06T02:06:48;6.93;;;5.07;;
20456;SDS011;10387;51.102;6.848;2022-07-06T02:09:14;5.70;;;5.10;;
20456;SDS011;10387;51.102;6.848;2022-07-06T02:11:41;5.83;;;4.37;;
20456;SDS011;10387;51.102;6.848;2022-07-06T02:14:07;4.90;;;4.40;;
20456;SDS011;10387;51.102;6.848;2022-07-06T02:16:36;5.67;;;4.10;;
20456;SDS011;10387;51.102;6.848;2022-07-06T02:19:02;6.23;;;4.57;;
20456;SDS011;10387;51.102;6.848;2022-07-06T02:21:29;6.93;;;4.40;;
20456;SDS011;10387;51.102;6.848;2022-07-06T02:23:55;5.70;;;4.63;;
20456;SDS011;10387;51.102;6.848;2022-07-06T02:26:22;6.63;;;4.70;;
20456;SDS011;10387;51.102;6.848;2022-07-06T02:28:49;6.53;;;4.60;;
20456;SDS011;10387;51.102;6.848;2022-07-06T02:31:15;5.53;;;4.30;;
20456;SDS011;10387;51.102;6.848;2022-07-06T02:33:44;6.77;;;5.00;;
20456;SDS011;10387;51.102;6.848;2022-07-06T02:36:11;5.47;;;4.97;;
20456;SDS011;10387;51.102;6.848;2022-07-06T02:38:37;7.13;;;4.90;;
20456;SDS011;10387;51.102;6.848;2022-07-06T02:41:04;7.67;;;5.57;;
20456;SDS011;10387;51.102;6.848;2022-07-06T02:43:30;5.43;;;4.93;;
20456;SDS011;10387;51.102;6.848;2022-07-06T02:45:56;6.47;;;5.47;;
20456;SDS011;10387;51.102;6.848;2022-07-06T02:48:25;8.70;;;5.33;;
20456;SDS011;10387;51.102;6.848;2022-07-06T02:50:52;7.03;;;4.80;;
20456;SDS011;10387;51.102;6.848;2022-07-06T02:53:18;5.30;;;4.40;;
20456;SDS011;10387;51.102;6.848;2022-07-06T02:55:47;7.93;;;5.07;;
20456;SDS011;10387;51.102;6.848;2022-07-06T02:58:13;7.10;;;4.80;;
20456;SDS011;10387;51.102;6.848;2022-07-06T03:00:39;4.97;;;4.47;;
20456;SDS011;10387;51.102;6.848;2022-07-06T03:03:06;4.67;;;4.27;;
20456;SDS011;10387;51.102;6.848;2022-07-06T03:05:34;7.30;;;4.67;;
20456;SDS011;10387;51.102;6.848;2022-07-06T03:08:00;6.20;;;4.37;;
20456;SDS011;10387;51.102;6.848;2022-07-06T03:10:26;6.40;;;4.00;;
20456;SDS011;10387;51.102;6.848;2022-07-06T03:12:53;5.13;;;4.37;;
20456;SDS011;10387;51.102;6.848;2022-07-06T03:15:20;5.40;;;4.70;;
20456;SDS011;10387;51.102;6.848;2022-07-06T03:17:46;5.87;;;4.30;;
20456;SDS011;10387;51.102;6.848;2022-07-06T03:20:13;5.50;;;4.80;;
20456;SDS011;10387;51.102;6.848;2022-07-06T03:22:40;4.93;;;4.43;;
20456;SDS011;10387;51.102;6.848;2022-07-06T03:25:08;5.60;;;5.03;;
20456;SDS011;10387;51.102;6.848;2022-07-06T03:27:37;6.77;;;4.77;;
20456;SDS011;10387;51.102;6.848;2022-07-06T03:30:03;7.80;;;4.80;;
20456;SDS011;10387;51.102;6.848;2022-07-06T03:32:32;7.00;;;5.00;;
20456;SDS011;10387;51.102;6.848;2022-07-06T03:34:59;4.90;;;4.40;;
20456;SDS011;10387;51.102;6.848;2022-07-06T03:37:26;5.43;;;4.50;;
20456;SDS011;10387;51.102;6.848;2022-07-06T03:39:52;6.70;;;4.90;;
20456;SDS011;10387;51.102;6.848;2022-07-06T03:42:18;7.10;;;5.33;;
20456;SDS011;10387;51.102;6.848;2022-07-06T03:44:44;7.90;;;5.07;;
20456;SDS011;10387;51.102;6.848;2022-07-06T03:47:11;6.77;;;4.93;;
20456;SDS011;10387;51.102;6.848;2022-07-06T03:49:38;6.70;;;5.33;;
20456;SDS011;10387;51.102;6.848;2022-07-06T03:52:06;6.97;;;5.33;;
20456;SDS011;10387;51.102;6.848;2022-07-06T03:54:40;7.33;;;5.13;;
20456;SDS011;10387;51.102;6.848;2022-07-06T03:57:07;8.53;;;5.80;;
20456;SDS011;10387;51.102;6.848;2022-07-06T03:59:34;6.93;;;5.60;;
20456;SDS011;10387;51.102;6.848;2022-07-06T04:02:00;8.33;;;5.50;;
20456;SDS011;10387;51.102;6.848;2022-07-06T04:04:27;7.43;;;5.27;;
20456;SDS011;10387;51.102;6.848;2022-07-06T04:06:53;9.53;;;5.93;;
20456;SDS011;10387;51.102;6.848;2022-07-06T04:09:19;7.80;;;5.63;;
20456;SDS011;10387;51.102;6.848;2022-07-06T04:11:47;6.97;;;5.80;;
20456;SDS011;10387;51.102;6.848;2022-07-06T04:14:13;6.87;;;5.60;;
20456;SDS011;10387;51.102;6.848;2022-07-06T04:16:39;7.93;;;5.37;;
20456;SDS011;10387;51.102;6.848;2022-07-06T04:19:07;5.63;;;4.97;;
20456;SDS011;10387;51.102;6.848;2022-07-06T04:21:34;7.63;;;5.37;;
20456;SDS011;10387;51.102;6.848;2022-07-06T04:24:00;9.97;;;5.90;;
20456;SDS011;10387;51.102;6.848;2022-07-06T04:26:27;6.17;;;5.33;;
20456;SDS011;10387;51.102;6.848;2022-07-06T04:28:55;6.97;;;5.33;;
20456;SDS011;10387;51.102;6.848;2022-07-06T04:31:23;6.03;;;5.27;;
20456;SDS011;10387;51.102;6.848;2022-07-06T04:33:50;7.07;;;5.90;;
20456;SDS011;10387;51.102;6.848;2022-07-06T04:36:16;6.50;;;5.57;;
20456;SDS011;10387;51.102;6.848;2022-07-06T04:38:44;8.70;;;5.77;;
20456;SDS011;10387;51.102;6.848;2022-07-06T04:41:14;9.30;;;6.07;;
20456;SDS011;10387;51.102;6.848;2022-07-06T04:43:40;6.70;;;6.10;;
20456;SDS011;10387;51.102;6.848;2022-07-06T04:46:09;8.97;;;5.73;;
20456;SDS011;10387;51.102;6.848;2022-07-06T04:48:38;7.83;;;5.77;;
20456;SDS011;10387;51.102;6.848;2022-07-06T04:51:07;10.10;;;6.97;;
20456;SDS011;10387;51.102;6.848;2022-07-06T04:53:34;7.67;;;5.60;;
20456;SDS011;10387;51.102;6.848;2022-07-06T04:56:02;7.50;;;5.97;;
20456;SDS011;10387;51.102;6.848;2022-07-06T04:58:30;9.03;;;5.93;;
20456;SDS011;10387;51.102;6.848;2022-07-06T05:00:56;10.70;;;6.50;;
20456;SDS011;10387;51.102;6.848;2022-07-06T05:03:24;8.10;;;6.53;;
20456;SDS011;10387;51.102;6.848;2022-07-06T05:05:50;6.67;;;5.30;;
20456;SDS011;10387;51.102;6.848;2022-07-06T05:08:16;7.33;;;5.33;;
20456;SDS011;10387;51.102;6.848;2022-07-06T05:10:44;7.47;;;5.43;;
20456;SDS011;10387;51.102;6.848;2022-07-06T05:13:10;6.87;;;5.53;;
20456;SDS011;10387;51.102;6.848;2022-07-06T05:15:36;7.47;;;5.50;;
20456;SDS011;10387;51.102;6.848;2022-07-06T05:18:03;6.57;;;4.70;;
20456;SDS011;10387;51.102;6.848;2022-07-06T05:20:30;7.77;;;4.73;;
20456;SDS011;10387;51.102;6.848;2022-07-06T05:22:59;6.37;;;5.30;;
20456;SDS011;10387;51.102;6.848;2022-07-06T05:25:28;6.37;;;5.10;;
20456;SDS011;10387;51.102;6.848;2022-07-06T05:27:56;7.73;;;4.83;;
20456;SDS011;10387;51.102;6.848;2022-07-06T05:30:22;5.60;;;4.50;;
20456;SDS011;10387;51.102;6.848;2022-07-06T05:32:48;5.67;;;4.83;;
20456;SDS011;10387;51.102;6.848;2022-07-06T05:35:15;5.83;;;4.60;;
20456;SDS011;10387;51.102;6.848;2022-07-06T05:37:41;5.20;;;4.07;;
20456;SDS011;10387;51.102;6.848;2022-07-06T05:40:08;6.97;;;4.87;;
20456;SDS011;10387;51.102;6.848;2022-07-06T05:42:35;5.50;;;4.53;;
20456;SDS011;10387;51.102;6.848;2022-07-06T05:45:01;4.67;;;4.17;;
20456;SDS011;10387;51.102;6.848;2022-07-06T05:47:29;6.57;;;4.37;;
20456;SDS011;10387;51.102;6.848;2022-07-06T05:50:14;4.80;;;4.27;;
20456;SDS011;10387;51.102;6.848;2022-07-06T05:52:57;6.03;;;4.70;;
20456;SDS011;10387;51.102;6.848;2022-07-06T05:55:23;5.00;;;4.03;;
20456;SDS011;10387;51.102;6.848;2022-07-06T05:57:50;6.30;;;4.57;;
20456;SDS011;10387;51.102;6.848;2022-07-06T06:00:19;5.23;;;4.10;;
20456;SDS011;10387;51.102;6.848;2022-07-06T06:02:51;6.87;;;4.40;;
20456;SDS011;10387;51.102;6.848;2022-07-06T06:05:18;5.03;;;3.90;;
20456;SDS011;10387;51.102;6.848;2022-07-06T06:07:47;5.67;;;4.17;;
20456;SDS011;10387;51.102;6.848;2022-07-06T06:10:16;6.10;;;4.20;;
20456;SDS011;10387;51.102;6.848;2022-07-06T06:12:44;5.57;;;3.70;;
20456;SDS011;10387;51.102;6.848;2022-07-06T06:15:11;4.37;;;3.80;;
20456;SDS011;10387;51.102;6.848;2022-07-06T06:17:37;5.83;;;4.37;;
20456;SDS011;10387;51.102;6.848;2022-07-06T06:20:04;6.23;;;4.23;;
20456;SDS011;10387;51.102;6.848;2022-07-06T06:22:31;4.87;;;3.67;;
20456;SDS011;10387;51.102;6.848;2022-07-06T06:24:58;5.80;;;3.77;;
20456;SDS011;10387;51.102;6.848;2022-07-06T06:27:24;4.20;;;3.80;;
20456;SDS011;10387;51.102;6.848;2022-07-06T06:29:50;7.33;;;3.60;;
20456;SDS011;10387;51.102;6.848;2022-07-06T06:32:16;3.67;;;3.10;;
20456;SDS011;10387;51.102;6.848;2022-07-06T06:34:42;5.87;;;2.90;;
20456;SDS011;10387;51.102;6.848;2022-07-06T06:37:08;4.53;;;3.60;;
20456;SDS011;10387;51.102;6.848;2022-07-06T06:39:34;3.70;;;2.93;;
20456;SDS011;10387;51.102;6.848;2022-07-06T06:42:00;4.13;;;3.13;;
20456;SDS011;10387;51.102;6.848;2022-07-06T06:44:31;3.60;;;2.60;;
20456;SDS011;10387;51.102;6.848;2022-07-06T06:46:57;4.07;;;2.67;;
20456;SDS011;10387;51.102;6.848;2022-07-06T06:49:23;2.67;;;2.47;;
20456;SDS011;10387;51.102;6.848;2022-07-06T06:51:50;6.20;;;2.50;;
20456;SDS011;10387;51.102;6.848;2022-07-06T06:54:16;4.33;;;2.53;;
20456;SDS011;10387;51.102;6.848;2022-07-06T06:56:42;5.07;;;2.63;;
20456;SDS011;10387;51.102;6.848;2022-07-06T06:59:08;4.50;;;2.10;;
20456;SDS011;10387;51.102;6.848;2022-07-06T07:01:34;4.67;;;2.20;;
20456;SDS011;10387;51.102;6.848;2022-07-06T07:04:00;2.90;;;2.27;;
20456;SDS011;10387;51.102;6.848;2022-07-06T07:06:26;3.10;;;2.30;;
20456;SDS011;10387;51.102;6.848;2022-07-06T07:08:52;4.33;;;2.27;;
20456;SDS011;10387;51.102;6.848;2022-07-06T07:11:20;5.37;;;2.67;;
20456;SDS011;10387;51.102;6.848;2022-07-06T07:13:46;3.37;;;2.80;;
20456;SDS011;10387;51.102;6.848;2022-07-06T07:16:12;3.67;;;2.77;;
20456;SDS011;10387;51.102;6.848;2022-07-06T07:18:38;4.67;;;2.70;;
20456;SDS011;10387;51.102;6.848;2022-07-06T07:21:04;6.10;;;3.00;;
20456;SDS011;10387;51.102;6.848;2022-07-06T07:23:30;3.40;;;2.50;;
20456;SDS011;10387;51.102;6.848;2022-07-06T07:25:56;3.57;;;2.30;;
20456;SDS011;10387;51.102;6.848;2022-07-06T07:28:22;4.00;;;2.30;;
20456;SDS011;10387;51.102;6.848;2022-07-06T07:30:48;5.60;;;2.80;;
20456;SDS011;10387;51.102;6.848;2022-07-06T07:33:15;3.10;;;2.20;;
20456;SDS011;10387;51.102;6.848;2022-07-06T07:35:42;4.30;;;2.10;;
20456;SDS011;10387;51.102;6.848;2022-07-06T07:38:08;5.37;;;2.07;;
20456;SDS011;10387;51.102;6.848;2022-07-06T07:40:34;4.07;;;1.83;;
20456;SDS011;10387;51.102;6.848;2022-07-06T07:43:00;2.93;;;1.73;;
20456;SDS011;10387;51.102;6.848;2022-07-06T07:45:26;4.47;;;1.70;;
20456;SDS011;10387;51.102;6.848;2022-07-06T07:47:53;1.80;;;1.50;;
20456;SDS011;10387;51.102;6.848;2022-07-06T07:50:19;2.13;;;1.13;;
20456;SDS011;10387;51.102;6.848;2022-07-06T07:52:45;2.63;;;1.27;;
20456;SDS011;10387;51.102;6.848;2022-07-06T07:55:11;4.37;;;1.40;;
20456;SDS011;10387;51.102;6.848;2022-07-06T07:57:37;3.90;;;1.27;;
20456;SDS011;10387;51.102;6.848;2022-07-06T08:00:04;2.13;;;1.50;;
20456;SDS011;10387;51.102;6.848;2022-07-06T08:02:36;4.27;;;1.70;;
20456;SDS011;10387;51.102;6.848;2022-07-06T08:05:02;3.37;;;1.43;;
20456;SDS011;10387;51.102;6.848;2022-07-06T08:07:29;3.17;;;1.47;;
20456;SDS011;10387;51.102;6.848;2022-07-06T08:09:55;4.43;;;1.50;;
20456;SDS011;10387;51.102;6.848;2022-07-06T08:12:21;2.20;;;1.60;;
20456;SDS011;10387;51.102;6.848;2022-07-06T08:14:47;4.17;;;1.87;;
20456;SDS011;10387;51.102;6.848;2022-07-06T08:17:13;2.53;;;1.50;;
20456;SDS011;10387;51.102;6.848;2022-07-06T08:19:39;1.37;;;1.10;;
20456;SDS011;10387;51.102;6.848;2022-07-06T08:22:05;2.73;;;1.40;;
20456;SDS011;10387;51.102;6.848;2022-07-06T08:24:36;2.60;;;1.37;;
20456;SDS011;10387;51.102;6.848;2022-07-06T08:27:02;1.90;;;1.23;;
20456;SDS011;10387;51.102;6.848;2022-07-06T08:29:29;3.00;;;1.43;;
20456;SDS011;10387;51.102;6.848;2022-07-06T08:31:55;4.27;;;1.60;;
20456;SDS011;10387;51.102;6.848;2022-07-06T08:34:22;2.73;;;1.27;;
20456;SDS011;10387;51.102;6.848;2022-07-06T08:36:48;2.07;;;1.10;;
20456;SDS011;10387;51.102;6.848;2022-07-06T08:39:14;1.30;;;1.20;;
20456;SDS011;10387;51.102;6.848;2022-07-06T08:41:43;1.37;;;0.87;;
20456;SDS011;10387;51.102;6.848;2022-07-06T08:44:13;5.47;;;1.20;;
20456;SDS011;10387;51.102;6.848;2022-07-06T08:46:39;1.20;;;1.10;;
20456;SDS011;10387;51.102;6.848;2022-07-06T08:49:09;2.03;;;1.10;;
20456;SDS011;10387;51.102;6.848;2022-07-06T08:51:37;1.43;;;1.07;;
20456;SDS011;10387;51.102;6.848;2022-07-06T08:54:04;2.97;;;1.37;;
20456;SDS011;10387;51.102;6.848;2022-07-06T08:56:30;2.63;;;1.23;;
20456;SDS011;10387;51.102;6.848;2022-07-06T08:58:56;2.73;;;1.30;;
20456;SDS011;10387;51.102;6.848;2022-07-06T09:01:23;2.40;;;1.20;;
20456;SDS011;10387;51.102;6.848;2022-07-06T09:03:49;1.37;;;1.00;;
20456;SDS011;10387;51.102;6.848;2022-07-06T09:06:16;3.90;;;1.10;;
20456;SDS011;10387;51.102;6.848;2022-07-06T09:08:43;3.10;;;0.90;;
20456;SDS011;10387;51.102;6.848;2022-07-06T09:11:09;3.40;;;0.90;;
20456;SDS011;10387;51.102;6.848;2022-07-06T09:13:35;2.37;;;0.83;;
20456;SDS011;10387;51.102;6.848;2022-07-06T09:16:11;1.23;;;1.00;;
20456;SDS011;10387;51.102;6.848;2022-07-06T09:18:38;1.40;;;1.00;;
20456;SDS011;10387;51.102;6.848;2022-07-06T09:21:06;1.83;;;0.90;;
20456;SDS011;10387;51.102;6.848;2022-07-06T09:23:32;2.10;;;1.03;;
20456;SDS011;10387;51.102;6.848;2022-07-06T09:26:01;2.90;;;0.77;;
20456;SDS011;10387;51.102;6.848;2022-07-06T09:28:43;1.17;;;0.97;;
20456;SDS011;10387;51.102;6.848;2022-07-06T09:31:10;1.43;;;1.00;;
20456;SDS011;10387;51.102;6.848;2022-07-06T09:33:36;3.10;;;1.00;;
20456;SDS011;10387;51.102;6.848;2022-07-06T09:36:02;1.80;;;1.37;;
20456;SDS011;10387;51.102;6.848;2022-07-06T09:38:29;2.87;;;1.00;;
20456;SDS011;10387;51.102;6.848;2022-07-06T09:40:55;1.70;;;1.10;;
20456;SDS011;10387;51.102;6.848;2022-07-06T09:43:21;1.80;;;0.93;;
20456;SDS011;10387;51.102;6.848;2022-07-06T09:45:49;1.70;;;1.03;;
20456;SDS011;10387;51.102;6.848;2022-07-06T09:48:17;1.20;;;0.90;;
20456;SDS011;10387;51.102;6.848;2022-07-06T09:50:53;2.53;;;1.03;;
20456;SDS011;10387;51.102;6.848;2022-07-06T09:53:20;1.63;;;1.13;;
20456;SDS011;10387;51.102;6.848;2022-07-06T09:55:47;5.60;;;1.30;;
20456;SDS011;10387;51.102;6.848;2022-07-06T09:58:14;2.30;;;1.20;;
20456;SDS011;10387;51.102;6.848;2022-07-06T10:00:41;2.27;;;1.30;;
20456;SDS011;10387;51.102;6.848;2022-07-06T10:03:08;5.50;;;1.20;;
20456;SDS011;10387;51.102;6.848;2022-07-06T10:05:41;2.60;;;1.40;;
20456;SDS011;10387;51.102;6.848;2022-07-06T10:08:08;1.30;;;1.20;;
20456;SDS011;10387;51.102;6.848;2022-07-06T10:10:35;1.20;;;1.10;;
20456;SDS011;10387;51.102;6.848;2022-07-06T10:13:01;2.53;;;1.50;;
20456;SDS011;10387;51.102;6.848;2022-07-06T10:15:31;2.17;;;1.10;;
20456;SDS011;10387;51.102;6.848;2022-07-06T10:17:58;3.43;;;1.20;;
20456;SDS011;10387;51.102;6.848;2022-07-06T10:20:24;1.33;;;1.00;;
20456;SDS011;10387;51.102;6.848;2022-07-06T10:22:53;4.17;;;1.20;;
20456;SDS011;10387;51.102;6.848;2022-07-06T10:25:20;2.77;;;1.00;;
20456;SDS011;10387;51.102;6.848;2022-07-06T10:27:47;2.00;;;1.10;;
20456;SDS011;10387;51.102;6.848;2022-07-06T10:30:14;1.73;;;1.00;;
20456;SDS011;10387;51.102;6.848;2022-07-06T10:32:42;1.63;;;1.07;;
20456;SDS011;10387;51.102;6.848;2022-07-06T10:35:09;2.40;;;1.20;;
20456;SDS011;10387;51.102;6.848;2022-07-06T10:37:35;3.57;;;1.60;;
20456;SDS011;10387;51.102;6.848;2022-07-06T10:40:01;2.03;;;1.27;;
20456;SDS011;10387;51.102;6.848;2022-07-06T10:42:50;1.40;;;1.30;;
20456;SDS011;10387;51.102;6.848;2022-07-06T10:46:03;1.63;;;1.17;;
20456;SDS011;10387;51.102;6.848;2022-07-06T10:50:37;3.07;;;1.83;;
20456;SDS011;10387;51.102;6.848;2022-07-06T10:53:13;2.93;;;1.70;;
20456;SDS011;10387;51.102;6.848;2022-07-06T10:55:41;2.50;;;1.90;;
20456;SDS011;10387;51.102;6.848;2022-07-06T10:58:08;2.83;;;1.90;;
20456;SDS011;10387;51.102;6.848;2022-07-06T11:00:42;1.77;;;1.43;;
20456;SDS011;10387;51.102;6.848;2022-07-06T11:03:30;2.23;;;1.13;;
20456;SDS011;10387;51.102;6.848;2022-07-06T11:06:16;3.07;;;1.20;;
20456;SDS011;10387;51.102;6.848;2022-07-06T11:08:43;2.00;;;1.10;;
20456;SDS011;10387;51.102;6.848;2022-07-06T11:11:10;2.17;;;1.07;;
20456;SDS011;10387;51.102;6.848;2022-07-06T11:13:41;1.43;;;1.17;;
20456;SDS011;10387;51.102;6.848;2022-07-06T11:16:08;1.20;;;0.90;;
20456;SDS011;10387;51.102;6.848;2022-07-06T11:18:47;1.77;;;1.03;;
20456;SDS011;10387;51.102;6.848;2022-07-06T11:21:14;2.00;;;1.20;;
20456;SDS011;10387;51.102;6.848;2022-07-06T11:23:41;1.90;;;1.17;;
20456;SDS011;10387;51.102;6.848;2022-07-06T11:26:08;1.53;;;1.13;;
20456;SDS011;10387;51.102;6.848;2022-07-06T11:28:35;1.60;;;1.03;;
20456;SDS011;10387;51.102;6.848;2022-07-06T11:31:01;2.17;;;1.10;;
20456;SDS011;10387;51.102;6.848;2022-07-06T11:33:28;1.63;;;1.30;;
20456;SDS011;10387;51.102;6.848;2022-07-06T11:38:40;2.17;;;1.20;;
20456;SDS011;10387;51.102;6.848;2022-07-06T11:41:06;1.70;;;1.30;;
20456;SDS011;10387;51.102;6.848;2022-07-06T11:43:32;1.23;;;1.10;;
20456;SDS011;10387;51.102;6.848;2022-07-06T11:45:58;2.93;;;1.20;;
20456;SDS011;10387;51.102;6.848;2022-07-06T11:48:24;1.90;;;1.33;;
20456;SDS011;10387;51.102;6.848;2022-07-06T11:51:00;2.37;;;0.90;;
20456;SDS011;10387;51.102;6.848;2022-07-06T11:53:26;1.17;;;1.07;;
20456;SDS011;10387;51.102;6.848;2022-07-06T11:55:52;2.57;;;1.47;;
20456;SDS011;10387;51.102;6.848;2022-07-06T11:58:20;2.90;;;1.10;;
20456;SDS011;10387;51.102;6.848;2022-07-06T12:03:32;3.50;;;1.30;;
20456;SDS011;10387;51.102;6.848;2022-07-06T12:06:01;1.77;;;1.27;;
20456;SDS011;10387;51.102;6.848;2022-07-06T12:08:27;1.90;;;1.37;;
20456;SDS011;10387;51.102;6.848;2022-07-06T12:10:53;1.93;;;1.30;;
20456;SDS011;10387;51.102;6.848;2022-07-06T12:13:20;1.20;;;1.10;;
20456;SDS011;10387;51.102;6.848;2022-07-06T12:15:46;2.13;;;1.57;;
20456;SDS011;10387;51.102;6.848;2022-07-06T12:18:15;2.10;;;1.10;;
20456;SDS011;10387;51.102;6.848;2022-07-06T12:20:42;1.43;;;1.00;;
20456;SDS011;10387;51.102;6.848;2022-07-06T12:23:08;1.83;;;1.17;;
20456;SDS011;10387;51.102;6.848;2022-07-06T12:25:35;2.33;;;1.20;;
20456;SDS011;10387;51.102;6.848;2022-07-06T12:28:02;3.10;;;1.20;;
20456;SDS011;10387;51.102;6.848;2022-07-06T12:30:29;0.87;;;0.87;;
20456;SDS011;10387;51.102;6.848;2022-07-06T12:33:12;1.70;;;1.07;;
20456;SDS011;10387;51.102;6.848;2022-07-06T12:35:44;2.63;;;1.13;;
20456;SDS011;10387;51.102;6.848;2022-07-06T12:38:20;1.43;;;0.97;;
20456;SDS011;10387;51.102;6.848;2022-07-06T12:40:46;1.50;;;1.17;;
20456;SDS011;10387;51.102;6.848;2022-07-06T12:43:12;2.67;;;1.30;;
20456;SDS011;10387;51.102;6.848;2022-07-06T12:45:38;2.20;;;1.00;;
20456;SDS011;10387;51.102;6.848;2022-07-06T12:48:05;1.73;;;1.00;;
20456;SDS011;10387;51.102;6.848;2022-07-06T12:50:37;1.43;;;1.27;;
20456;SDS011;10387;51.102;6.848;2022-07-06T12:53:05;0.90;;;0.90;;
20456;SDS011;10387;51.102;6.848;2022-07-06T12:55:31;2.20;;;1.17;;
20456;SDS011;10387;51.102;6.848;2022-07-06T12:57:58;1.33;;;0.90;;
20456;SDS011;10387;51.102;6.848;2022-07-06T13:03:12;2.27;;;1.13;;
20456;SDS011;10387;51.102;6.848;2022-07-06T13:05:38;0.93;;;0.87;;
20456;SDS011;10387;51.102;6.848;2022-07-06T13:08:04;4.13;;;1.37;;
20456;SDS011;10387;51.102;6.848;2022-07-06T13:10:30;1.30;;;1.20;;
20456;SDS011;10387;51.102;6.848;2022-07-06T13:13:01;2.60;;;1.30;;
20456;SDS011;10387;51.102;6.848;2022-07-06T13:15:27;1.90;;;1.13;;
20456;SDS011;10387;51.102;6.848;2022-07-06T13:17:54;3.27;;;1.47;;
20456;SDS011;10387;51.102;6.848;2022-07-06T13:20:20;1.90;;;1.00;;
20456;SDS011;10387;51.102;6.848;2022-07-06T13:22:46;4.30;;;1.27;;
20456;SDS011;10387;51.102;6.848;2022-07-06T13:25:12;2.57;;;1.20;;
20456;SDS011;10387;51.102;6.848;2022-07-06T13:27:38;2.70;;;0.90;;
20456;SDS011;10387;51.102;6.848;2022-07-06T13:30:04;1.47;;;1.03;;
20456;SDS011;10387;51.102;6.848;2022-07-06T13:32:30;2.40;;;1.20;;
20456;SDS011;10387;51.102;6.848;2022-07-06T13:34:57;3.53;;;1.20;;
20456;SDS011;10387;51.102;6.848;2022-07-06T13:37:23;1.73;;;1.20;;
20456;SDS011;10387;51.102;6.848;2022-07-06T13:39:50;2.20;;;1.40;;
20456;SDS011;10387;51.102;6.848;2022-07-06T13:42:16;2.30;;;1.20;;
20456;SDS011;10387;51.102;6.848;2022-07-06T13:44:42;2.23;;;1.30;;
20456;SDS011;10387;51.102;6.848;2022-07-06T13:47:08;2.27;;;1.47;;
20456;SDS011;10387;51.102;6.848;2022-07-06T13:49:34;1.73;;;1.30;;
20456;SDS011;10387;51.102;6.848;2022-07-06T13:52:00;1.37;;;0.90;;
20456;SDS011;10387;51.102;6.848;2022-07-06T13:54:30;2.33;;;1.30;;
20456;SDS011;10387;51.102;6.848;2022-07-06T13:56:56;1.73;;;0.73;;
20456;SDS011;10387;51.102;6.848;2022-07-06T13:59:22;2.00;;;1.10;;
20456;SDS011;10387;51.102;6.848;2022-07-06T14:01:48;1.00;;;0.87;;
20456;SDS011;10387;51.102;6.848;2022-07-06T14:04:14;3.23;;;1.20;;
20456;SDS011;10387;51.102;6.848;2022-07-06T14:06:40;2.10;;;1.00;;
20456;SDS011;10387;51.102;6.848;2022-07-06T14:09:06;1.67;;;1.20;;
20456;SDS011;10387;51.102;6.848;2022-07-06T14:11:32;1.77;;;0.83;;
20456;SDS011;10387;51.102;6.848;2022-07-06T14:13:58;1.20;;;1.10;;
20456;SDS011;10387;51.102;6.848;2022-07-06T14:16:27;2.20;;;1.60;;
20456;SDS011;10387;51.102;6.848;2022-07-06T14:18:54;2.73;;;1.20;;
20456;SDS011;10387;51.102;6.848;2022-07-06T14:21:20;2.23;;;0.97;;
20456;SDS011;10387;51.102;6.848;2022-07-06T14:23:46;1.53;;;0.90;;
20456;SDS011;10387;51.102;6.848;2022-07-06T14:26:13;1.70;;;1.00;;
20456;SDS011;10387;51.102;6.848;2022-07-06T14:28:39;3.50;;;1.00;;
20456;SDS011;10387;51.102;6.848;2022-07-06T14:31:06;1.20;;;1.03;;
20456;SDS011;10387;51.102;6.848;2022-07-06T14:33:32;2.73;;;1.17;;
20456;SDS011;10387;51.102;6.848;2022-07-06T14:35:58;2.77;;;1.30;;
20456;SDS011;10387;51.102;6.848;2022-07-06T14:38:24;1.63;;;1.20;;
20456;SDS011;10387;51.102;6.848;2022-07-06T14:40:52;1.10;;;1.00;;
20456;SDS011;10387;51.102;6.848;2022-07-06T14:43:18;1.10;;;1.00;;
20456;SDS011;10387;51.102;6.848;2022-07-06T14:45:45;1.40;;;1.30;;
20456;SDS011;10387;51.102;6.848;2022-07-06T14:48:12;3.03;;;1.20;;
20456;SDS011;10387;51.102;6.848;2022-07-06T14:50:38;1.73;;;0.80;;
20456;SDS011;10387;51.102;6.848;2022-07-06T14:53:04;1.30;;;0.90;;
20456;SDS011;10387;51.102;6.848;2022-07-06T14:55:31;1.63;;;0.90;;
20456;SDS011;10387;51.102;6.848;2022-07-06T14:57:57;1.83;;;1.10;;
20456;SDS011;10387;51.102;6.848;2022-07-06T15:00:23;2.27;;;1.00;;